createdAt,value
2019-06-01T00:00:57.136Z,11.33
2019-06-01T00:06:01.490Z,11.33
2019-06-01T00:11:06.440Z,11.22
2019-06-01T00:16:30.139Z,12.68
2019-06-01T00:21:54.641Z,13.62
2019-06-01T00:26:58.992Z,14.13
2019-06-01T00:32:03.337Z,13.28
2019-06-01T00:37:07.700Z,13.50
2019-06-01T00:42:12.082Z,14.78
2019-06-01T00:47:16.441Z,15.15
2019-06-01T00:52:20.796Z,13.38
2019-06-01T00:57:25.168Z,15.20
2019-06-01T01:02:29.533Z,12.98
2019-06-01T01:07:33.885Z,14.10
2019-06-01T01:12:39.960Z,13.08
2019-06-01T01:17:45.709Z,13.10
2019-06-01T01:22:50.258Z,13.28
2019-06-01T01:27:54.867Z,12.40
2019-06-01T01:32:59.569Z,12.43
2019-06-01T01:38:04.299Z,12.37
2019-06-01T01:43:08.668Z,13.10
2019-06-01T01:48:13.040Z,13.32
2019-06-01T01:53:17.413Z,13.03
2019-06-01T01:58:21.755Z,13.75
2019-06-01T02:03:26.097Z,13.70
2019-06-01T02:08:30.483Z,13.20
2019-06-01T02:13:34.839Z,14.10
2019-06-01T02:18:39.201Z,14.28
2019-06-01T02:23:43.557Z,13.90
2019-06-01T02:28:48.060Z,12.47
2019-06-01T02:33:53.645Z,14.93
2019-06-01T02:38:58.650Z,15.40
2019-06-01T02:44:04.339Z,14.93
2019-06-01T02:49:09.325Z,14.55
2019-06-01T02:54:13.700Z,15.28
2019-06-01T02:59:18.059Z,14.95
2019-06-01T03:04:23.082Z,14.47
2019-06-01T03:09:29.101Z,14.35
2019-06-01T03:14:35.390Z,15.32
2019-06-01T03:19:43.170Z,14.30
2019-06-01T03:24:50.101Z,16.23
2019-06-01T03:29:57.438Z,15.15
2019-06-01T03:35:21.186Z,16.57
2019-06-01T03:40:25.602Z,15.98
2019-06-01T03:45:29.957Z,15.95
2019-06-01T03:50:34.311Z,14.75
2019-06-01T03:55:38.678Z,14.07
2019-06-01T04:00:43.039Z,15.50
2019-06-01T04:05:47.410Z,14.60
2019-06-01T04:10:51.764Z,15.48
2019-06-01T04:15:56.106Z,15.13
2019-06-01T04:21:02.162Z,15.18
2019-06-01T04:26:08.025Z,15.32
2019-06-01T04:31:12.848Z,15.00
2019-06-01T04:36:17.323Z,14.55
2019-06-01T04:41:21.655Z,15.00
2019-06-01T04:46:26.003Z,13.18
2019-06-01T04:51:30.670Z,13.65
2019-06-01T04:56:35.005Z,12.95
2019-06-01T05:01:39.346Z,12.85
2019-06-01T05:06:44.183Z,12.73
2019-06-01T05:11:48.512Z,13.15
2019-06-01T05:16:52.876Z,12.07
2019-06-01T05:21:57.220Z,12.95
2019-06-01T05:27:01.572Z,12.45
2019-06-01T05:32:05.982Z,12.33
2019-06-01T05:37:10.802Z,12.80
2019-06-01T05:42:16.843Z,13.55
2019-06-01T05:47:22.452Z,12.30
2019-06-01T05:52:26.947Z,13.03
2019-06-01T05:57:31.307Z,12.13
2019-06-01T06:02:35.721Z,12.85
2019-06-01T06:07:40.084Z,11.63
2019-06-01T06:12:44.426Z,11.45
2019-06-01T06:17:48.797Z,11.10
2019-06-01T06:22:53.140Z,11.28
2019-06-01T06:27:57.487Z,10.80
2019-06-01T06:33:02.049Z,11.95
2019-06-01T06:38:06.569Z,11.70
2019-06-01T06:43:19.003Z,11.93
2019-06-01T06:48:17.145Z,14.15
2019-06-01T06:53:29.859Z,12.25
2019-06-01T06:58:27.650Z,13.32
2019-06-01T07:03:31.995Z,13.85
2019-06-01T07:08:36.370Z,10.63
2019-06-01T07:13:40.722Z,13.00
2019-06-01T07:18:45.070Z,13.50
2019-06-01T07:23:49.447Z,12.33
2019-06-01T07:28:53.872Z,12.85
2019-06-01T07:33:58.223Z,11.30
2019-06-01T07:39:02.743Z,10.00
2019-06-01T07:44:07.042Z,10.78
2019-06-01T07:49:11.395Z,10.25
2019-06-01T07:54:16.131Z,9.93
2019-06-01T07:59:21.519Z,10.60
2019-06-01T08:04:28.615Z,10.05
2019-06-01T08:09:33.004Z,8.30
2019-06-01T08:14:37.361Z,9.50
2019-06-01T08:19:41.789Z,8.93
2019-06-01T08:24:46.190Z,9.28
2019-06-01T08:29:50.532Z,10.48
2019-06-01T08:35:07.818Z,10.18
2019-06-01T08:40:04.968Z,9.03
2019-06-01T08:45:10.438Z,9.68
2019-06-01T08:50:16.427Z,10.32
2019-06-01T08:55:20.839Z,11.12
2019-06-01T09:00:26.337Z,12.05
2019-06-01T09:05:31.535Z,10.35
2019-06-01T09:10:36.021Z,7.50
2019-06-01T09:15:43.445Z,9.48
2019-06-01T09:20:47.798Z,9.25
2019-06-01T09:25:52.162Z,10.35
2019-06-01T09:30:58.545Z,9.68
2019-06-01T09:36:02.638Z,10.63
2019-06-01T09:41:06.992Z,10.30
2019-06-01T09:46:11.384Z,9.13
2019-06-01T09:51:15.711Z,8.90
2019-06-01T09:56:20.054Z,8.90
2019-06-01T10:01:24.439Z,10.65
2019-06-01T10:06:28.796Z,7.20
2019-06-01T10:11:34.295Z,11.03
2019-06-01T10:16:39.084Z,10.63
2019-06-01T10:21:43.578Z,8.65
2019-06-01T10:26:47.966Z,8.65
2019-06-01T10:31:52.300Z,7.28
2019-06-01T10:36:56.659Z,8.83
2019-06-01T10:42:01.039Z,9.80
2019-06-01T10:47:05.746Z,10.35
2019-06-01T10:52:10.089Z,9.50
2019-06-01T10:57:14.416Z,7.72
2019-06-01T11:02:18.769Z,8.68
2019-06-01T11:07:23.116Z,12.05
2019-06-01T11:12:27.481Z,10.13
2019-06-01T11:17:32.799Z,7.50
2019-06-01T11:22:37.555Z,9.93
2019-06-01T11:27:42.041Z,6.90
2019-06-01T11:32:46.350Z,6.58
2019-06-01T11:37:50.689Z,5.97
2019-06-01T11:42:55.056Z,5.90
2019-06-01T11:47:59.392Z,6.78
2019-06-01T11:53:03.754Z,6.58
2019-06-01T11:58:08.234Z,5.92
2019-06-01T12:03:12.669Z,7.97
2019-06-01T12:08:17.224Z,6.45
2019-06-01T12:13:21.612Z,5.70
2019-06-01T12:18:25.967Z,6.28
2019-06-01T12:23:30.324Z,5.20
2019-06-01T12:28:34.665Z,6.70
2019-06-01T12:33:39.882Z,5.00
2019-06-01T12:38:54.899Z,5.83
2019-06-01T12:44:09.430Z,5.15
2019-06-01T12:49:17.546Z,4.75
2019-06-01T12:54:21.979Z,4.60
2019-06-01T12:59:26.341Z,4.33
2019-06-01T13:04:30.713Z,4.12
2019-06-01T13:09:35.053Z,3.52
2019-06-01T13:14:39.457Z,3.70
2019-06-01T13:19:45.460Z,3.17
2019-06-01T13:24:50.032Z,3.20
2019-06-01T13:29:54.361Z,3.40
2019-06-01T13:34:58.715Z,2.72
2019-06-01T13:40:04.083Z,2.40
2019-06-01T13:45:08.956Z,3.30
2019-06-01T13:50:13.580Z,2.52
2019-06-01T13:55:17.994Z,2.98
2019-06-01T14:00:30.293Z,2.45
2019-06-01T14:05:28.473Z,2.67
2019-06-01T14:10:32.825Z,3.20
2019-06-01T14:15:37.182Z,2.83
2019-06-01T14:20:41.533Z,2.55
2019-06-01T14:25:45.982Z,2.83
2019-06-01T14:30:50.367Z,2.45
2019-06-01T14:35:54.710Z,2.50
2019-06-01T14:40:59.059Z,2.90
2019-06-01T14:46:03.409Z,2.27
2019-06-01T14:51:07.743Z,2.52
2019-06-01T14:56:12.137Z,2.55
2019-06-01T15:01:31.361Z,2.40
2019-06-01T15:06:22.621Z,2.90
2019-06-01T15:11:26.957Z,2.98
2019-06-01T15:16:31.327Z,2.40
2019-06-01T15:21:36.664Z,3.72
2019-06-01T15:26:40.998Z,2.52
2019-06-01T15:31:45.373Z,2.70
2019-06-01T15:36:49.723Z,3.12
2019-06-01T15:41:55.207Z,4.42
2019-06-01T15:47:02.078Z,3.25
2019-06-01T15:52:06.524Z,2.20
2019-06-01T15:57:10.847Z,2.50
2019-06-01T16:02:15.205Z,2.55
2019-06-01T16:07:19.664Z,2.33
2019-06-01T16:12:24.083Z,2.67
2019-06-01T16:17:28.427Z,4.08
2019-06-01T16:22:32.795Z,3.08
2019-06-01T16:27:37.148Z,2.60
2019-06-01T16:32:41.497Z,2.70
2019-06-01T16:37:45.835Z,2.77
2019-06-01T16:42:50.194Z,2.98
2019-06-01T16:47:55.438Z,3.20
2019-06-01T16:53:00.233Z,3.00
2019-06-01T16:58:06.301Z,2.50
2019-06-01T17:03:11.423Z,2.45
2019-06-01T17:08:15.882Z,1.90
2019-06-01T17:13:20.309Z,3.85
2019-06-01T17:18:24.658Z,2.83
2019-06-01T17:23:32.711Z,2.37
2019-06-01T17:28:35.093Z,4.22
2019-06-01T17:33:39.445Z,3.77
2019-06-01T17:38:43.806Z,4.00
2019-06-01T17:43:48.189Z,4.40
2019-06-01T17:48:52.543Z,5.05
2019-06-01T17:53:56.891Z,4.80
2019-06-01T17:59:01.348Z,4.53
2019-06-01T18:04:05.954Z,4.67
2019-06-01T18:09:10.542Z,5.70
2019-06-01T18:14:15.269Z,6.17
2019-06-01T18:19:19.610Z,9.53
2019-06-01T18:24:23.969Z,6.47
2019-06-01T18:29:28.331Z,8.13
2019-06-01T18:34:32.678Z,6.28
2019-06-01T18:39:37.049Z,6.10
2019-06-01T18:44:41.537Z,6.08
2019-06-01T18:49:46.681Z,5.10
2019-06-01T18:54:52.126Z,5.60
2019-06-01T18:59:56.474Z,5.00
2019-06-01T19:05:00.829Z,4.80
2019-06-01T19:10:09.455Z,4.55
2019-06-01T19:15:28.090Z,5.67
2019-06-01T19:20:22.520Z,5.20
2019-06-01T19:25:27.096Z,4.55
2019-06-01T19:30:38.663Z,5.33
2019-06-01T19:35:43.003Z,4.55
2019-06-01T19:40:47.341Z,5.00
2019-06-01T19:45:52.706Z,4.87
2019-06-01T19:50:57.199Z,4.90
2019-06-01T19:56:01.536Z,4.70
2019-06-01T20:01:06.235Z,4.45
2019-06-01T20:06:11.071Z,5.10
2019-06-01T20:11:15.567Z,5.03
2019-06-01T20:16:21.077Z,4.92
2019-06-01T20:21:25.660Z,4.90
2019-06-01T20:26:39.657Z,4.40
2019-06-01T20:31:36.159Z,5.08
2019-06-01T20:36:40.504Z,4.62
2019-06-01T20:42:20.316Z,4.80
2019-06-01T20:47:10.767Z,5.22
2019-06-01T20:52:15.109Z,5.70
2019-06-01T20:57:19.680Z,6.58
2019-06-01T21:02:24.212Z,6.90
2019-06-01T21:07:28.609Z,7.62
2019-06-01T21:12:44.962Z,9.15
2019-06-01T21:17:39.106Z,9.20
2019-06-01T21:22:43.441Z,9.73
2019-06-01T21:27:47.799Z,10.48
2019-06-01T21:32:52.230Z,10.40
2019-06-01T21:37:56.585Z,10.03
2019-06-01T21:43:22.517Z,11.38
2019-06-01T21:48:07.142Z,9.65
2019-06-01T21:53:11.512Z,10.18
2019-06-01T21:58:16.467Z,9.95
2019-06-01T22:03:21.219Z,10.93
2019-06-01T22:08:25.543Z,11.43
2019-06-01T22:13:29.901Z,12.43
2019-06-01T22:18:34.251Z,13.58
2019-06-01T22:23:38.592Z,13.85
2019-06-01T22:28:43.477Z,14.15
2019-06-01T22:33:47.848Z,14.58
2019-06-01T22:38:52.226Z,16.23
2019-06-01T22:43:56.587Z,25.35
2019-06-01T22:49:00.945Z,25.60
2019-06-01T22:54:05.450Z,27.80
2019-06-01T22:59:09.923Z,29.12
2019-06-01T23:04:14.265Z,27.82
2019-06-01T23:09:18.601Z,22.85
2019-06-01T23:14:23.316Z,17.25
2019-06-01T23:19:28.094Z,16.07
2019-06-01T23:24:51.948Z,14.23
2019-06-01T23:29:56.295Z,15.85
2019-06-01T23:35:00.649Z,14.65
2019-06-01T23:40:09.110Z,15.98
2019-06-01T23:45:13.784Z,15.60
2019-06-01T23:50:18.145Z,15.90
2019-06-01T23:55:23.503Z,16.57
